Leonora, Australia
Current Conditions -  °F | °C
As of 10:30 AM on Sunday 23 Nov 2014 (Local Time) from YPKG Reporting Station
Clear Clear  
Wind Chill: 77°   Ceiling: Unl
Heat Index: 78°   Visibility: 6mi
Dew Point: 41°   Wind: 15mph
Humidity: 28%   Direction: 220°SW
Pressure: 29.94"   Gusts: NA
Location:  28.88°S, 121.33°E
Report Text: YPKG 230230Z 22013KT CAVOK 25/05 Q1014
Loading
Personal Weather Stations






























Interactive Weather Map New forecast layout! Learn more

10-Day Weather Forecast

Advertisements
Track Severe Weather on mobile